createdAt,value
2023-05-16T00:01:45.186Z,101945.75
2023-05-16T00:04:12.458Z,101959.88
2023-05-16T00:06:39.412Z,101952.81
2023-05-16T00:09:06.204Z,101956.06
2023-05-16T00:11:35.517Z,101952.06
2023-05-16T00:14:02.824Z,101948.09
2023-05-16T00:16:30.330Z,101927.75
2023-05-16T00:19:01.262Z,101954.53
2023-05-16T00:21:28.392Z,101953.69
2023-05-16T00:23:55.254Z,101966.94
2023-05-16T00:26:26.851Z,101934.44
2023-05-16T00:28:53.824Z,101966.31
2023-05-16T00:31:20.923Z,101960.22
2023-05-16T00:33:47.691Z,101944.56
2023-05-16T00:36:14.494Z,101959.50
2023-05-16T00:38:41.512Z,101968.16
2023-05-16T00:41:08.382Z,101938.69
2023-05-16T00:43:35.563Z,101945.75
2023-05-16T00:46:02.561Z,101955.91
2023-05-16T00:48:29.769Z,101962.47
2023-05-16T00:50:59.228Z,101956.00
2023-05-16T00:53:27.005Z,101960.44
2023-05-16T00:55:53.923Z,101961.44
2023-05-16T00:58:26.173Z,101962.31
2023-05-16T01:00:53.467Z,101963.03
2023-05-16T01:03:23.137Z,101974.97
2023-05-16T01:05:52.946Z,101961.06
2023-05-16T01:08:20.709Z,101966.34
2023-05-16T01:11:01.200Z,101965.16
2023-05-16T01:13:36.994Z,101962.03
2023-05-16T01:16:25.627Z,101937.53
2023-05-16T01:19:06.320Z,101961.81
2023-05-16T01:22:05.835Z,101980.66
2023-05-16T01:25:00.328Z,101975.31
2023-05-16T01:27:35.442Z,101965.88
2023-05-16T01:30:14.161Z,101972.41
2023-05-16T01:32:41.064Z,101969.72
2023-05-16T01:35:14.478Z,101953.31
2023-05-16T01:38:04.416Z,101965.31
2023-05-16T01:40:48.119Z,101970.88
2023-05-16T01:43:21.000Z,101981.88
2023-05-16T01:46:04.432Z,101984.03
2023-05-16T01:48:42.250Z,101984.63
2023-05-16T01:51:10.613Z,101971.78
2023-05-16T01:53:42.588Z,101985.25
2023-05-16T01:56:15.618Z,101998.13
2023-05-16T01:58:43.642Z,101985.16
2023-05-16T02:01:13.563Z,101990.06
2023-05-16T02:03:40.546Z,101997.91
2023-05-16T02:06:07.796Z,101992.69
2023-05-16T02:08:39.359Z,101982.22
2023-05-16T02:11:06.332Z,101994.19
2023-05-16T02:13:33.135Z,101999.09
2023-05-16T02:15:59.896Z,101999.94
2023-05-16T02:18:28.362Z,102001.50
2023-05-16T02:20:55.124Z,102002.13
2023-05-16T02:23:22.022Z,102007.69
2023-05-16T02:25:49.265Z,102010.63
2023-05-16T02:28:15.988Z,102015.41
2023-05-16T02:30:42.694Z,101996.44
2023-05-16T02:33:10.767Z,102015.16
2023-05-16T02:35:37.630Z,102011.88
2023-05-16T02:38:04.361Z,102019.28
2023-05-16T02:40:31.737Z,102015.03
2023-05-16T02:42:58.631Z,102017.09
2023-05-16T02:45:25.704Z,102024.28
2023-05-16T02:47:52.702Z,101997.28
2023-05-16T02:50:19.690Z,102032.84
2023-05-16T02:52:47.356Z,102023.06
2023-05-16T02:55:21.668Z,102022.50
2023-05-16T02:57:50.788Z,102027.09
2023-05-16T03:00:18.924Z,102031.06
2023-05-16T03:02:45.815Z,102025.84
2023-05-16T03:05:13.062Z,102027.69
2023-05-16T03:07:39.899Z,102015.38
2023-05-16T03:10:07.514Z,102047.38
2023-05-16T03:12:36.792Z,102044.00
2023-05-16T03:15:04.279Z,102037.25
2023-05-16T03:17:31.390Z,102037.34
2023-05-16T03:20:00.436Z,102055.28
2023-05-16T03:22:27.339Z,102015.97
2023-05-16T03:24:54.351Z,102049.19
2023-05-16T03:27:23.736Z,102054.81
2023-05-16T03:29:50.677Z,102035.75
2023-05-16T03:32:19.932Z,102053.31
2023-05-16T03:34:46.939Z,102041.19
2023-05-16T03:37:16.628Z,102049.91
2023-05-16T03:39:43.598Z,102045.56
2023-05-16T03:42:10.345Z,102048.06
2023-05-16T03:44:37.466Z,102029.09
2023-05-16T03:47:06.881Z,102041.50
2023-05-16T03:49:39.602Z,102052.16
2023-05-16T03:52:07.072Z,102063.59
2023-05-16T03:54:34.097Z,102059.16
2023-05-16T03:57:03.144Z,102067.28
2023-05-16T03:59:30.051Z,102067.00
2023-05-16T04:01:59.387Z,102075.03
2023-05-16T04:04:26.744Z,102081.03
2023-05-16T04:06:53.588Z,102082.56
2023-05-16T04:09:20.424Z,102074.41
2023-05-16T04:11:49.542Z,102080.19
2023-05-16T04:14:16.710Z,102077.38
2023-05-16T04:16:43.742Z,102084.25
2023-05-16T04:19:10.630Z,102085.03
2023-05-16T04:21:40.418Z,102076.00
2023-05-16T04:24:08.368Z,102064.94
2023-05-16T04:26:36.560Z,102096.28
2023-05-16T04:29:03.741Z,102072.13
2023-05-16T04:31:31.194Z,102095.66
2023-05-16T04:34:00.139Z,102088.72
2023-05-16T04:36:30.208Z,102086.88
2023-05-16T04:38:59.416Z,102098.13
2023-05-16T04:41:25.976Z,102097.34
2023-05-16T04:43:53.758Z,102097.91
2023-05-16T04:46:22.616Z,102092.25
2023-05-16T04:48:49.330Z,102105.00
2023-05-16T04:51:16.083Z,102100.84
2023-05-16T04:53:42.655Z,102099.72
2023-05-16T04:56:09.232Z,102108.34
2023-05-16T04:58:38.758Z,102102.22
2023-05-16T05:01:06.378Z,102102.81
2023-05-16T05:03:34.251Z,102105.22
2023-05-16T05:06:01.902Z,102097.97
2023-05-16T05:08:28.517Z,102110.50
2023-05-16T05:10:56.695Z,102103.69
2023-05-16T05:13:24.080Z,102103.47
2023-05-16T05:15:52.370Z,102100.78
2023-05-16T05:18:19.198Z,102110.75
2023-05-16T05:20:46.029Z,102108.44
2023-05-16T05:23:13.387Z,102101.22
2023-05-16T05:25:40.940Z,102106.06
2023-05-16T05:28:07.669Z,102112.44
2023-05-16T05:30:36.593Z,102096.63
2023-05-16T05:33:03.458Z,102097.78
2023-05-16T05:35:30.378Z,102102.31
2023-05-16T05:37:57.174Z,102110.72
2023-05-16T05:40:24.032Z,102089.59
2023-05-16T05:42:52.881Z,102105.81
2023-05-16T05:45:19.606Z,102106.91
2023-05-16T05:47:48.474Z,102111.94
2023-05-16T05:50:17.857Z,102115.06
2023-05-16T05:52:44.528Z,102109.56
2023-05-16T05:55:13.817Z,102112.09
2023-05-16T05:57:40.436Z,102113.78
2023-05-16T06:00:10.432Z,102118.53
2023-05-16T06:02:37.378Z,102118.44
2023-05-16T06:05:04.382Z,102119.00
2023-05-16T06:07:33.654Z,102126.44
2023-05-16T06:10:05.123Z,102119.06
2023-05-16T06:12:32.154Z,102127.09
2023-05-16T06:14:58.816Z,102119.44
2023-05-16T06:17:25.651Z,102134.34
2023-05-16T06:19:52.831Z,102137.63
2023-05-16T06:22:19.368Z,102134.84
2023-05-16T06:24:45.944Z,102135.66
2023-05-16T06:27:12.741Z,102138.75
2023-05-16T06:29:39.732Z,102136.91
2023-05-16T06:32:06.834Z,102141.84
2023-05-16T06:34:33.439Z,102150.34
2023-05-16T06:37:00.147Z,102138.81
2023-05-16T06:39:29.033Z,102136.91
2023-05-16T06:41:56.733Z,102148.69
2023-05-16T06:44:24.203Z,102136.13
2023-05-16T06:46:51.370Z,102155.38
2023-05-16T06:49:18.505Z,102148.22
2023-05-16T06:51:45.440Z,102151.44
2023-05-16T06:54:12.421Z,102143.38
2023-05-16T06:56:39.094Z,102153.97
2023-05-16T06:59:05.795Z,102149.31
2023-05-16T07:01:32.548Z,102147.25
2023-05-16T07:03:59.364Z,102153.88
2023-05-16T07:06:35.132Z,102147.47
2023-05-16T07:09:02.350Z,102150.06
2023-05-16T07:11:28.981Z,102156.66
2023-05-16T07:13:58.677Z,102152.38
2023-05-16T07:16:28.600Z,102156.75
2023-05-16T07:19:02.486Z,102167.78
2023-05-16T07:21:29.348Z,102172.78
2023-05-16T07:23:58.229Z,102164.44
2023-05-16T07:26:27.215Z,102164.41
2023-05-16T07:28:53.858Z,102165.13
2023-05-16T07:31:20.969Z,102169.66
2023-05-16T07:33:47.583Z,102175.16
2023-05-16T07:36:17.539Z,102200.28
2023-05-16T07:38:45.134Z,102180.25
2023-05-16T07:41:11.985Z,102176.63
2023-05-16T07:43:38.655Z,102179.81
2023-05-16T07:46:07.588Z,102177.28
2023-05-16T07:48:36.666Z,102185.19
2023-05-16T07:51:03.417Z,102198.94
2023-05-16T07:53:30.021Z,102195.63
2023-05-16T07:55:57.123Z,102178.94
2023-05-16T07:58:26.199Z,102186.13
2023-05-16T08:00:52.867Z,102181.22
2023-05-16T08:03:22.389Z,102180.41
2023-05-16T08:05:49.387Z,102182.13
2023-05-16T08:08:16.227Z,102182.16
2023-05-16T08:10:42.917Z,102185.59
2023-05-16T08:13:11.935Z,102165.41
2023-05-16T08:15:38.636Z,102144.50
2023-05-16T08:18:13.648Z,102174.31
2023-05-16T08:20:41.784Z,102185.56
2023-05-16T08:23:09.423Z,102184.47
2023-05-16T08:25:36.184Z,102185.56
2023-05-16T08:28:05.753Z,102205.97
2023-05-16T08:30:34.937Z,102187.13
2023-05-16T08:33:04.966Z,102175.84
2023-05-16T08:35:32.581Z,102189.69
2023-05-16T08:37:59.358Z,102174.94
2023-05-16T08:40:29.345Z,102133.94
2023-05-16T08:42:56.607Z,102177.81
2023-05-16T08:45:24.115Z,102171.72
2023-05-16T08:47:58.267Z,102169.97
2023-05-16T08:50:25.869Z,102162.47
2023-05-16T08:52:54.154Z,102172.84
2023-05-16T08:55:22.309Z,102174.16
2023-05-16T08:57:54.891Z,102178.53
2023-05-16T09:00:22.693Z,102174.03
2023-05-16T09:02:50.385Z,102172.94
2023-05-16T09:05:18.171Z,102182.78
2023-05-16T09:07:46.160Z,102175.75
2023-05-16T09:10:13.632Z,102194.34
2023-05-16T09:12:44.027Z,102178.16
2023-05-16T09:15:11.564Z,102195.88
2023-05-16T09:17:46.835Z,102196.50
2023-05-16T09:20:15.571Z,102195.03
2023-05-16T09:22:52.843Z,102165.78
2023-05-16T09:25:29.479Z,102189.16
2023-05-16T09:28:00.104Z,102185.03
2023-05-16T09:30:34.748Z,102175.84
2023-05-16T09:33:02.014Z,102187.28
2023-05-16T09:37:58.677Z,102174.84
2023-05-16T09:40:25.576Z,102178.19
2023-05-16T09:43:09.638Z,102193.75
2023-05-16T09:45:37.054Z,102190.47
2023-05-16T09:48:07.865Z,102196.66
2023-05-16T09:50:36.995Z,102182.19
2023-05-16T09:53:04.214Z,102182.28
2023-05-16T09:55:31.527Z,102187.53
2023-05-16T09:58:00.987Z,102171.69
2023-05-16T10:00:32.454Z,102178.72
2023-05-16T10:03:03.460Z,102184.97
2023-05-16T10:05:31.993Z,102180.75
2023-05-16T10:07:58.832Z,102181.78
2023-05-16T10:10:26.748Z,102186.78
2023-05-16T10:12:58.880Z,102194.41
2023-05-16T10:15:26.512Z,102191.47
2023-05-16T10:17:56.748Z,102178.53
2023-05-16T10:20:23.825Z,102184.06
2023-05-16T10:22:55.288Z,102183.38
2023-05-16T10:25:29.472Z,102188.91
2023-05-16T10:27:56.830Z,102165.56
2023-05-16T10:30:23.523Z,102171.19
2023-05-16T10:32:52.003Z,102179.69
2023-05-16T10:35:20.179Z,102179.41
2023-05-16T10:37:50.341Z,102197.19
2023-05-16T10:40:17.574Z,102187.13
2023-05-16T10:42:56.943Z,102185.88
2023-05-16T10:45:24.014Z,102195.47
2023-05-16T10:48:04.846Z,102173.66
2023-05-16T10:50:52.733Z,102176.75
2023-05-16T10:53:20.846Z,102191.19
2023-05-16T10:55:59.550Z,102188.50
2023-05-16T10:58:35.772Z,102197.78
2023-05-16T11:01:17.931Z,102202.41
2023-05-16T11:04:07.078Z,102199.56
2023-05-16T11:06:42.739Z,102205.00
2023-05-16T11:09:13.942Z,102190.84
2023-05-16T11:11:46.313Z,102187.81
2023-05-16T11:14:25.789Z,102187.88
2023-05-16T11:17:17.856Z,102155.50
2023-05-16T11:19:52.324Z,102191.81
2023-05-16T11:22:19.008Z,102206.44
2023-05-16T11:24:57.709Z,102196.16
2023-05-16T11:27:27.026Z,102209.81
2023-05-16T11:30:04.343Z,102196.81
2023-05-16T11:32:35.659Z,102188.34
2023-05-16T11:35:03.954Z,102200.09
2023-05-16T11:37:31.296Z,102161.31
2023-05-16T11:40:02.639Z,102197.50
2023-05-16T11:42:38.155Z,102205.22
2023-05-16T11:45:08.804Z,102204.25
2023-05-16T11:47:40.657Z,102198.47
2023-05-16T11:50:11.777Z,102191.94
2023-05-16T11:52:38.698Z,102191.59
2023-05-16T11:55:06.998Z,102196.28
2023-05-16T11:57:34.109Z,102199.81
2023-05-16T12:00:27.875Z,102188.81
2023-05-16T12:03:01.413Z,102201.41
2023-05-16T12:05:30.819Z,102198.28
2023-05-16T12:07:59.811Z,102191.66
2023-05-16T12:10:29.559Z,102199.56
2023-05-16T12:12:56.722Z,102207.31
2023-05-16T12:15:23.448Z,102209.00
2023-05-16T12:17:50.986Z,102206.59
2023-05-16T12:20:20.686Z,102197.66
2023-05-16T12:22:50.456Z,102213.34
2023-05-16T12:25:37.824Z,102208.53
2023-05-16T12:28:05.279Z,102213.03
2023-05-16T12:30:33.026Z,102207.41
2023-05-16T12:33:13.823Z,102203.44
2023-05-16T12:35:42.800Z,102217.59
2023-05-16T12:38:13.131Z,102216.94
2023-05-16T12:40:41.675Z,102219.28
2023-05-16T12:43:25.555Z,102227.53
2023-05-16T12:45:52.883Z,102221.38
2023-05-16T12:48:20.273Z,102181.59
2023-05-16T12:50:47.122Z,102222.53
2023-05-16T12:53:20.072Z,102220.22
2023-05-16T12:55:47.059Z,102230.88
2023-05-16T12:58:17.652Z,102226.28
2023-05-16T13:00:44.431Z,102235.00
2023-05-16T13:03:12.348Z,102233.25
2023-05-16T13:05:39.287Z,102220.00
2023-05-16T13:08:06.341Z,102233.00
2023-05-16T13:10:36.184Z,102224.00
2023-05-16T13:13:04.832Z,102231.97
2023-05-16T13:15:31.811Z,102217.66
2023-05-16T13:18:00.923Z,102226.44
2023-05-16T13:20:28.185Z,102219.56
2023-05-16T13:22:55.802Z,102229.06
2023-05-16T13:25:22.447Z,102236.25
2023-05-16T13:27:51.500Z,102226.69
2023-05-16T13:30:18.199Z,102231.75
2023-05-16T13:32:47.142Z,102236.00
2023-05-16T13:35:13.774Z,102222.78
2023-05-16T13:37:41.557Z,102231.34
2023-05-16T13:40:11.629Z,102227.09
2023-05-16T13:42:41.171Z,102231.78
2023-05-16T13:45:08.177Z,102226.28
2023-05-16T13:47:37.558Z,102236.53
2023-05-16T13:50:10.425Z,102229.13
2023-05-16T13:52:38.514Z,102221.69
2023-05-16T13:55:08.061Z,102235.22
2023-05-16T13:57:35.000Z,102213.34
2023-05-16T14:02:31.679Z,102233.41
2023-05-16T14:04:58.416Z,102234.78
2023-05-16T14:07:25.145Z,102239.69
2023-05-16T14:09:51.821Z,102235.91
2023-05-16T14:12:20.796Z,102251.41
2023-05-16T14:14:47.410Z,102237.41
2023-05-16T14:17:14.049Z,102227.88
2023-05-16T14:19:40.754Z,102242.41
2023-05-16T14:22:08.164Z,102246.84
2023-05-16T14:24:34.929Z,102203.16
2023-05-16T14:27:01.882Z,102241.84
2023-05-16T14:29:28.612Z,102234.13
2023-05-16T14:31:55.526Z,102233.84
2023-05-16T14:34:23.743Z,102242.41
2023-05-16T14:36:51.160Z,102234.78
2023-05-16T14:39:20.411Z,102196.97
2023-05-16T14:41:49.602Z,102226.75
2023-05-16T14:44:19.470Z,102236.25
2023-05-16T14:46:46.906Z,102229.81
2023-05-16T14:49:14.007Z,102240.75
2023-05-16T14:51:40.635Z,102228.44
2023-05-16T14:54:07.592Z,102238.28
2023-05-16T14:56:34.238Z,102235.94
2023-05-16T14:59:03.141Z,102244.47
2023-05-16T15:01:29.796Z,102231.81
2023-05-16T15:03:58.873Z,102240.16
2023-05-16T15:06:25.492Z,102235.38
2023-05-16T15:08:52.471Z,102234.19
2023-05-16T15:11:19.703Z,102236.00
2023-05-16T15:13:46.438Z,102244.34
2023-05-16T15:16:13.157Z,102245.69
2023-05-16T15:18:40.508Z,102208.00
2023-05-16T15:21:07.239Z,102226.66
2023-05-16T15:23:33.985Z,102227.66
2023-05-16T15:26:00.774Z,102236.63
2023-05-16T15:28:32.141Z,102225.22
2023-05-16T15:30:58.825Z,102240.84
2023-05-16T15:33:25.521Z,102239.81
2023-05-16T15:35:52.132Z,102249.13
2023-05-16T15:38:20.965Z,102211.78
2023-05-16T15:40:50.802Z,102241.47
2023-05-16T15:43:24.640Z,102237.94
2023-05-16T15:45:51.328Z,102237.31
2023-05-16T15:48:18.021Z,102238.81
2023-05-16T15:50:47.119Z,102242.41
2023-05-16T15:53:14.058Z,102243.16
2023-05-16T15:55:40.989Z,102251.81
2023-05-16T15:58:07.822Z,102253.19
2023-05-16T16:00:34.504Z,102241.63
2023-05-16T16:03:01.669Z,102252.72
2023-05-16T16:05:28.628Z,102253.41
2023-05-16T16:07:55.481Z,102257.66
2023-05-16T16:10:22.774Z,102247.19
2023-05-16T16:13:07.394Z,102215.13
2023-05-16T16:15:36.744Z,102244.81
2023-05-16T16:18:03.793Z,102244.50
2023-05-16T16:20:30.896Z,102249.97
2023-05-16T16:22:57.767Z,102259.09
2023-05-16T16:25:24.636Z,102253.63
2023-05-16T16:27:54.590Z,102250.09
2023-05-16T16:30:21.159Z,102264.19
2023-05-16T16:32:48.962Z,102272.50
2023-05-16T16:35:15.916Z,102264.88
2023-05-16T16:37:48.765Z,102270.59
2023-05-16T16:40:22.010Z,102278.09
2023-05-16T16:42:48.634Z,102284.53
2023-05-16T16:45:17.709Z,102283.03
2023-05-16T16:47:46.993Z,102281.16
2023-05-16T16:50:13.667Z,102265.94
2023-05-16T16:52:43.304Z,102276.38
2023-05-16T16:55:10.051Z,102266.25
2023-05-16T16:57:36.941Z,102284.09
2023-05-16T17:00:04.082Z,102282.06
2023-05-16T17:02:30.932Z,102286.00
2023-05-16T17:04:59.826Z,102280.03
2023-05-16T17:07:29.007Z,102295.41
2023-05-16T17:09:56.396Z,102286.16
2023-05-16T17:12:23.064Z,102293.78
2023-05-16T17:14:51.479Z,102289.34
2023-05-16T17:17:18.948Z,102284.56
2023-05-16T17:19:47.033Z,102274.56
2023-05-16T17:22:16.718Z,102291.34
2023-05-16T17:24:45.767Z,102269.66
2023-05-16T17:27:14.752Z,102302.63
2023-05-16T17:29:44.086Z,102306.25
2023-05-16T17:32:11.632Z,102320.88
2023-05-16T17:34:43.140Z,102318.53
2023-05-16T17:37:10.640Z,102328.97
2023-05-16T17:39:37.375Z,102336.50
2023-05-16T17:42:05.659Z,102334.16
2023-05-16T17:44:34.732Z,102330.84
2023-05-16T17:47:01.423Z,102323.44
2023-05-16T17:49:28.009Z,102332.69
2023-05-16T17:51:56.829Z,102343.09
2023-05-16T17:54:27.276Z,102333.72
2023-05-16T17:56:54.717Z,102337.31
2023-05-16T17:59:21.736Z,102336.59
2023-05-16T18:01:49.060Z,102322.25
2023-05-16T18:04:15.877Z,102340.06
2023-05-16T18:06:46.199Z,102323.13
2023-05-16T18:09:15.141Z,102326.88
2023-05-16T18:11:42.709Z,102337.59
2023-05-16T18:14:14.130Z,102333.72
2023-05-16T18:16:40.905Z,102338.78
2023-05-16T18:19:08.799Z,102326.63
2023-05-16T18:21:36.482Z,102328.97
2023-05-16T18:24:03.375Z,102323.75
2023-05-16T18:26:30.343Z,102294.84
2023-05-16T18:28:58.247Z,102329.09
2023-05-16T18:31:24.955Z,102338.78
2023-05-16T18:33:51.905Z,102337.63
2023-05-16T18:36:20.960Z,102346.84
2023-05-16T18:38:47.924Z,102341.97
2023-05-16T18:41:15.534Z,102342.81
2023-05-16T18:43:43.685Z,102348.31
2023-05-16T18:46:13.282Z,102339.31
2023-05-16T18:48:40.031Z,102335.88
2023-05-16T18:51:06.791Z,102352.16
2023-05-16T18:53:33.576Z,102345.19
2023-05-16T18:56:02.589Z,102358.88
2023-05-16T18:58:31.483Z,102353.88
2023-05-16T19:01:04.095Z,102361.78
2023-05-16T19:03:33.471Z,102363.22
2023-05-16T19:06:00.366Z,102365.06
2023-05-16T19:08:31.238Z,102372.50
2023-05-16T19:11:03.668Z,102376.16
2023-05-16T19:13:32.379Z,102380.56
2023-05-16T19:16:02.141Z,102381.34
2023-05-16T19:18:29.405Z,102386.72
2023-05-16T19:20:56.134Z,102389.38
2023-05-16T19:23:27.626Z,102388.25
2023-05-16T19:25:54.732Z,102396.38
2023-05-16T19:28:21.402Z,102395.28
2023-05-16T19:30:48.416Z,102394.06
2023-05-16T19:33:15.475Z,102398.19
2023-05-16T19:35:42.144Z,102397.72
2023-05-16T19:38:08.892Z,102402.81
2023-05-16T19:40:35.656Z,102403.19
2023-05-16T19:43:04.782Z,102398.56
2023-05-16T19:45:33.548Z,102385.00
2023-05-16T19:48:02.709Z,102403.69
2023-05-16T19:50:29.525Z,102413.53
2023-05-16T19:52:58.507Z,102408.16
2023-05-16T19:55:27.382Z,102411.16
2023-05-16T19:57:55.635Z,102403.69
2023-05-16T20:00:25.168Z,102413.41
2023-05-16T20:02:52.747Z,102412.75
2023-05-16T20:05:25.521Z,102413.78
2023-05-16T20:07:58.143Z,102425.94
2023-05-16T20:10:25.019Z,102406.53
2023-05-16T20:12:51.883Z,102423.94
2023-05-16T20:15:21.316Z,102402.72
2023-05-16T20:17:48.172Z,102412.94
2023-05-16T20:20:17.455Z,102406.19
2023-05-16T20:22:44.380Z,102428.91
2023-05-16T20:25:12.088Z,102421.69
2023-05-16T20:27:39.291Z,102435.13
2023-05-16T20:30:07.436Z,102434.72
2023-05-16T20:32:36.780Z,102428.88
2023-05-16T20:35:05.065Z,102434.56
2023-05-16T20:37:34.140Z,102437.03
2023-05-16T20:40:03.519Z,102413.19
2023-05-16T20:42:30.521Z,102441.31
2023-05-16T20:44:57.263Z,102443.41
2023-05-16T20:47:24.128Z,102438.91
2023-05-16T20:49:50.919Z,102432.19
2023-05-16T20:52:18.043Z,102432.66
2023-05-16T20:54:48.630Z,102434.56
2023-05-16T20:57:16.269Z,102441.75
2023-05-16T20:59:43.006Z,102445.81
2023-05-16T21:02:12.788Z,102459.47
2023-05-16T21:04:42.044Z,102460.47
2023-05-16T21:07:11.412Z,102468.88
2023-05-16T21:09:41.455Z,102469.34
2023-05-16T21:12:08.513Z,102465.53
2023-05-16T21:14:35.254Z,102482.56
2023-05-16T21:17:04.312Z,102479.19
2023-05-16T21:19:35.046Z,102475.06
2023-05-16T21:22:04.271Z,102473.31
2023-05-16T21:24:35.382Z,102467.75
2023-05-16T21:27:03.901Z,102469.41
2023-05-16T21:29:31.311Z,102461.00
2023-05-16T21:31:58.783Z,102459.56
2023-05-16T21:34:28.850Z,102474.53
2023-05-16T21:36:58.766Z,102460.91
2023-05-16T21:39:25.789Z,102477.06
2023-05-16T21:41:52.551Z,102471.28
2023-05-16T21:44:19.565Z,102480.09
2023-05-16T21:46:46.615Z,102486.63
2023-05-16T21:49:16.056Z,102487.84
2023-05-16T21:51:42.901Z,102481.91
2023-05-16T21:54:09.783Z,102461.28
2023-05-16T21:56:36.742Z,102482.25
2023-05-16T21:59:03.724Z,102483.34
2023-05-16T22:01:30.621Z,102489.09
2023-05-16T22:03:57.826Z,102468.81
2023-05-16T22:06:25.261Z,102464.22
2023-05-16T22:08:52.408Z,102487.69
2023-05-16T22:11:22.335Z,102448.16
2023-05-16T22:13:51.517Z,102477.41
2023-05-16T22:16:20.577Z,102502.16
2023-05-16T22:18:47.805Z,102499.97
2023-05-16T22:21:16.303Z,102506.88
2023-05-16T22:23:43.103Z,102488.19
2023-05-16T22:26:09.957Z,102469.09
2023-05-16T22:28:36.672Z,102487.00
2023-05-16T22:31:03.383Z,102490.59
2023-05-16T22:33:30.228Z,102484.03
2023-05-16T22:35:59.510Z,102486.06
2023-05-16T22:38:26.364Z,102484.88
2023-05-16T22:40:58.330Z,102501.03
2023-05-16T22:43:25.122Z,102495.13
2023-05-16T22:45:54.572Z,102496.97
2023-05-16T22:48:21.534Z,102493.03
2023-05-16T22:50:48.273Z,102461.78
2023-05-16T22:53:15.070Z,102514.63
2023-05-16T22:55:44.293Z,102518.41
2023-05-16T22:58:10.999Z,102501.59
2023-05-16T23:00:37.755Z,102498.41
2023-05-16T23:03:04.648Z,102505.00
2023-05-16T23:05:36.328Z,102503.38
2023-05-16T23:08:04.414Z,102486.97
2023-05-16T23:10:32.400Z,102501.81
2023-05-16T23:13:01.771Z,102495.69
2023-05-16T23:15:28.766Z,102492.41
2023-05-16T23:17:56.449Z,102485.72
2023-05-16T23:20:23.449Z,102499.94
2023-05-16T23:22:50.461Z,102507.75
2023-05-16T23:25:17.575Z,102507.91
2023-05-16T23:27:44.420Z,102489.63
2023-05-16T23:30:12.173Z,102498.47
2023-05-16T23:32:39.030Z,102511.78
2023-05-16T23:35:06.413Z,102510.22
2023-05-16T23:37:36.113Z,102518.41
2023-05-16T23:40:03.000Z,102522.22
2023-05-16T23:42:29.902Z,102517.72
2023-05-16T23:44:59.104Z,102496.06
2023-05-16T23:47:26.810Z,102522.50
2023-05-16T23:49:53.655Z,102527.19
2023-05-16T23:52:20.711Z,102520.84
2023-05-16T23:54:47.753Z,102522.81
2023-05-16T23:57:16.967Z,102383.25
2023-05-16T23:59:43.676Z,102530.97
